createdAt,value
2023-02-17T00:01:28.535Z,49.30
2023-02-17T00:03:55.400Z,49.40
2023-02-17T00:06:25.063Z,49.40
2023-02-17T00:08:52.176Z,49.40
2023-02-17T00:11:19.383Z,49.40
2023-02-17T00:13:46.554Z,49.50
2023-02-17T00:16:19.970Z,49.40
2023-02-17T00:18:47.532Z,49.40
2023-02-17T00:21:20.454Z,49.40
2023-02-17T00:23:48.302Z,49.40
2023-02-17T00:26:16.081Z,49.40
2023-02-17T00:28:43.802Z,49.40
2023-02-17T00:31:14.410Z,49.50
2023-02-17T00:33:41.375Z,49.40
2023-02-17T00:36:11.488Z,49.50
2023-02-17T00:38:38.209Z,49.50
2023-02-17T00:41:05.359Z,49.50
2023-02-17T00:43:32.310Z,49.40
2023-02-17T00:45:58.995Z,49.40
2023-02-17T00:48:25.740Z,49.40
2023-02-17T00:50:52.405Z,49.50
2023-02-17T00:53:19.104Z,49.50
2023-02-17T00:55:45.862Z,49.40
2023-02-17T00:58:12.571Z,49.50
2023-02-17T01:00:39.306Z,49.40
2023-02-17T01:03:06.030Z,49.40
2023-02-17T01:05:33.209Z,49.40
2023-02-17T01:08:00.008Z,49.40
2023-02-17T01:10:26.696Z,49.40
2023-02-17T01:12:53.527Z,49.40
2023-02-17T01:15:20.237Z,49.40
2023-02-17T01:17:47.154Z,49.50
2023-02-17T01:20:14.077Z,49.40
2023-02-17T01:22:40.870Z,49.40
2023-02-17T01:25:08.110Z,49.40
2023-02-17T01:27:35.325Z,49.40
2023-02-17T01:30:02.147Z,49.40
2023-02-17T01:32:29.001Z,49.40
2023-02-17T01:34:55.773Z,49.40
2023-02-17T01:37:22.522Z,49.50
2023-02-17T01:39:49.234Z,49.40
2023-02-17T01:42:18.154Z,49.50
2023-02-17T01:45:18.590Z,49.40
2023-02-17T01:47:51.226Z,49.50
2023-02-17T01:50:20.481Z,49.50
2023-02-17T01:52:47.182Z,49.50
2023-02-17T01:55:18.410Z,49.50
2023-02-17T01:57:47.698Z,49.50
2023-02-17T02:00:17.293Z,49.50
2023-02-17T02:02:47.585Z,49.50
2023-02-17T02:05:15.390Z,49.50
2023-02-17T02:07:43.581Z,49.50
2023-02-17T02:10:11.758Z,49.40
2023-02-17T02:12:40.475Z,49.50
2023-02-17T02:15:16.423Z,49.40
2023-02-17T02:18:07.490Z,49.50
2023-02-17T02:20:52.329Z,49.50
2023-02-17T02:23:55.852Z,49.40
2023-02-17T02:26:34.698Z,49.50
2023-02-17T02:29:14.895Z,49.50
2023-02-17T02:32:03.101Z,49.50
2023-02-17T02:34:46.267Z,49.50
2023-02-17T02:37:17.546Z,49.50
2023-02-17T02:39:50.730Z,49.50
2023-02-17T02:42:21.716Z,49.50
2023-02-17T02:44:49.923Z,49.50
2023-02-17T02:47:41.398Z,49.50
2023-02-17T02:50:10.618Z,49.50
2023-02-17T02:52:55.249Z,49.50
2023-02-17T02:55:31.224Z,49.50
2023-02-17T02:58:16.485Z,49.50
2023-02-17T03:01:02.381Z,49.50
2023-02-17T03:04:00.765Z,49.50
2023-02-17T03:06:41.440Z,49.40
2023-02-17T03:09:37.706Z,49.50
2023-02-17T03:12:04.782Z,49.50
2023-02-17T03:14:38.212Z,49.60
2023-02-17T03:17:05.124Z,49.60
2023-02-17T03:19:31.876Z,49.50
2023-02-17T03:22:23.361Z,49.60
2023-02-17T03:24:50.156Z,49.60
2023-02-17T03:27:16.858Z,49.70
2023-02-17T03:29:43.685Z,49.70
2023-02-17T03:32:10.540Z,49.70
2023-02-17T03:34:37.556Z,49.60
2023-02-17T03:37:04.404Z,49.70
2023-02-17T03:39:31.641Z,49.60
2023-02-17T03:41:58.310Z,49.60
2023-02-17T03:44:24.989Z,49.70
2023-02-17T03:46:51.642Z,49.70
2023-02-17T03:49:18.355Z,49.60
2023-02-17T03:51:45.058Z,49.70
2023-02-17T03:54:11.800Z,49.60
2023-02-17T03:56:38.497Z,49.70
2023-02-17T03:59:05.321Z,49.60
2023-02-17T04:01:32.347Z,49.60
2023-02-17T04:03:59.047Z,49.70
2023-02-17T04:06:26.055Z,49.70
2023-02-17T04:08:52.888Z,49.70
2023-02-17T04:11:19.586Z,49.70
2023-02-17T04:13:46.329Z,49.70
2023-02-17T04:16:13.025Z,49.70
2023-02-17T04:18:39.984Z,49.70
2023-02-17T04:21:07.080Z,49.70
2023-02-17T04:23:36.266Z,49.70
2023-02-17T04:26:07.909Z,49.70
2023-02-17T04:28:39.304Z,49.70
2023-02-17T04:31:06.790Z,49.80
2023-02-17T04:33:34.187Z,49.70
2023-02-17T04:36:00.944Z,49.70
2023-02-17T04:38:29.454Z,49.70
2023-02-17T04:40:57.714Z,49.70
2023-02-17T04:43:25.949Z,49.70
2023-02-17T04:45:53.028Z,49.70
2023-02-17T04:48:20.629Z,49.70
2023-02-17T04:50:47.316Z,49.70
2023-02-17T04:53:14.272Z,49.70
2023-02-17T04:55:42.019Z,49.70
2023-02-17T04:58:09.488Z,49.80
2023-02-17T05:00:36.716Z,49.70
2023-02-17T05:03:03.452Z,49.70
2023-02-17T05:05:31.042Z,49.70
2023-02-17T05:07:57.992Z,49.70
2023-02-17T05:10:24.786Z,49.70
2023-02-17T05:12:52.296Z,49.70
2023-02-17T05:15:19.150Z,49.70
2023-02-17T05:17:46.006Z,49.70
2023-02-17T05:20:12.775Z,49.80
2023-02-17T05:22:39.536Z,49.70
2023-02-17T05:25:06.944Z,49.80
2023-02-17T05:27:34.074Z,49.80
2023-02-17T05:30:00.846Z,49.80
2023-02-17T05:32:27.566Z,49.80
2023-02-17T05:34:54.375Z,49.70
2023-02-17T05:37:21.063Z,49.80
2023-02-17T05:39:47.833Z,49.80
2023-02-17T05:42:14.544Z,49.80
2023-02-17T05:44:41.316Z,49.80
2023-02-17T05:47:08.151Z,49.80
2023-02-17T05:49:34.959Z,49.80
2023-02-17T05:52:02.283Z,49.80
2023-02-17T05:54:29.135Z,49.80
2023-02-17T05:56:55.876Z,49.80
2023-02-17T05:59:22.749Z,49.80
2023-02-17T06:01:49.501Z,49.80
2023-02-17T06:04:16.230Z,49.80
2023-02-17T06:06:42.971Z,49.80
2023-02-17T06:09:09.670Z,49.80
2023-02-17T06:11:36.406Z,49.80
2023-02-17T06:14:03.191Z,49.80
2023-02-17T06:16:30.044Z,49.80
2023-02-17T06:18:56.890Z,49.80
2023-02-17T06:21:23.583Z,49.80
2023-02-17T06:23:50.236Z,49.80
2023-02-17T06:26:18.511Z,49.80
2023-02-17T06:28:45.568Z,49.90
2023-02-17T06:31:12.847Z,49.90
2023-02-17T06:33:39.653Z,49.90
2023-02-17T06:36:07.166Z,49.90
2023-02-17T06:38:34.121Z,49.90
2023-02-17T06:41:00.782Z,49.90
2023-02-17T06:43:27.490Z,49.90
2023-02-17T06:45:54.347Z,50.00
2023-02-17T06:48:21.086Z,50.00
2023-02-17T06:50:49.571Z,49.90
2023-02-17T06:53:16.271Z,49.90
2023-02-17T06:55:44.428Z,50.00
2023-02-17T06:58:11.110Z,50.00
2023-02-17T07:00:37.944Z,50.00
2023-02-17T07:03:04.868Z,50.00
2023-02-17T07:05:31.612Z,50.30
2023-02-17T07:07:58.778Z,50.30
2023-02-17T07:10:25.666Z,50.40
2023-02-17T07:12:52.422Z,50.60
2023-02-17T07:15:19.253Z,50.60
2023-02-17T07:17:45.923Z,50.50
2023-02-17T07:20:13.182Z,50.60
2023-02-17T07:22:40.165Z,50.50
2023-02-17T07:25:07.835Z,50.50
2023-02-17T07:27:37.569Z,50.50
2023-02-17T07:30:05.489Z,50.50
2023-02-17T07:32:32.203Z,50.40
2023-02-17T07:34:58.897Z,50.40
2023-02-17T07:37:25.624Z,50.50
2023-02-17T07:39:52.426Z,50.40
2023-02-17T07:42:19.129Z,50.40
2023-02-17T07:44:45.831Z,50.30
2023-02-17T07:47:12.475Z,50.30
2023-02-17T07:49:39.334Z,50.30
2023-02-17T07:52:06.146Z,50.30
2023-02-17T07:54:32.942Z,50.30
2023-02-17T07:57:00.192Z,50.30
2023-02-17T07:59:26.865Z,50.30
2023-02-17T08:01:53.628Z,50.30
2023-02-17T08:04:20.408Z,50.30
2023-02-17T08:06:47.179Z,50.30
2023-02-17T08:09:32.828Z,50.20
2023-02-17T08:12:18.799Z,50.10
2023-02-17T08:14:45.683Z,50.10
2023-02-17T08:17:12.428Z,50.10
2023-02-17T08:19:47.961Z,50.10
2023-02-17T08:22:16.662Z,50.00
2023-02-17T08:24:43.483Z,50.10
2023-02-17T08:27:10.291Z,50.00
2023-02-17T08:29:37.040Z,50.10
2023-02-17T08:32:04.016Z,50.00
2023-02-17T08:34:33.822Z,50.00
2023-02-17T08:37:05.200Z,50.00
2023-02-17T08:39:32.965Z,50.00
2023-02-17T08:41:59.904Z,50.00
2023-02-17T08:44:27.050Z,50.00
2023-02-17T08:46:54.003Z,50.00
2023-02-17T08:49:24.982Z,50.00
2023-02-17T08:51:53.706Z,50.00
2023-02-17T08:54:20.518Z,50.00
2023-02-17T08:56:47.202Z,50.20
2023-02-17T08:59:14.136Z,50.10
2023-02-17T09:01:41.947Z,50.00
2023-02-17T09:04:10.357Z,50.00
2023-02-17T09:06:41.612Z,50.00
2023-02-17T09:09:11.162Z,50.00
2023-02-17T09:11:38.375Z,50.00
2023-02-17T09:14:05.636Z,50.00
2023-02-17T09:16:32.446Z,50.10
2023-02-17T09:18:59.177Z,50.10
2023-02-17T09:21:26.213Z,50.00
2023-02-17T09:23:53.890Z,50.00
2023-02-17T09:26:21.092Z,50.00
2023-02-17T09:28:48.216Z,50.10
2023-02-17T09:31:19.213Z,50.00
2023-02-17T09:33:47.885Z,50.00
2023-02-17T09:36:17.567Z,50.00
2023-02-17T09:38:44.848Z,50.00
2023-02-17T09:41:23.980Z,50.00
2023-02-17T09:43:51.828Z,50.00
2023-02-17T09:46:33.124Z,50.00
2023-02-17T09:49:12.623Z,50.00
2023-02-17T09:51:48.687Z,50.00
2023-02-17T09:54:41.032Z,50.00
2023-02-17T09:57:13.565Z,50.00
2023-02-17T09:59:46.291Z,50.00
2023-02-17T10:02:21.273Z,50.00
2023-02-17T10:04:50.972Z,50.00
2023-02-17T10:07:43.986Z,50.00
2023-02-17T10:10:14.495Z,50.00
2023-02-17T10:12:46.236Z,50.00
2023-02-17T10:15:19.135Z,50.00
2023-02-17T10:17:55.747Z,50.00
2023-02-17T10:20:33.560Z,50.00
2023-02-17T10:23:07.210Z,50.10
2023-02-17T10:26:15.901Z,50.10
2023-02-17T10:28:53.822Z,50.10
2023-02-17T10:31:43.217Z,50.10
2023-02-17T10:34:17.241Z,50.20
2023-02-17T10:37:05.212Z,50.10
2023-02-17T10:39:52.374Z,50.10
2023-02-17T10:42:21.845Z,50.10
2023-02-17T10:44:51.177Z,50.10
2023-02-17T10:47:20.093Z,50.10
2023-02-17T10:49:53.157Z,50.10
2023-02-17T10:52:28.023Z,50.10
2023-02-17T10:55:00.515Z,50.10
2023-02-17T10:57:35.247Z,50.10
2023-02-17T11:00:02.250Z,50.20
2023-02-17T11:02:53.293Z,50.20
2023-02-17T11:05:26.180Z,50.10
2023-02-17T11:08:03.178Z,50.10
2023-02-17T11:10:32.634Z,50.10
2023-02-17T11:13:01.011Z,50.10
2023-02-17T11:15:44.524Z,50.10
2023-02-17T11:18:20.393Z,50.10
2023-02-17T11:20:47.990Z,50.10
2023-02-17T11:23:14.767Z,50.20
2023-02-17T11:25:42.969Z,50.10
2023-02-17T11:28:24.164Z,50.20
2023-02-17T11:30:55.003Z,50.20
2023-02-17T11:33:39.809Z,50.20
2023-02-17T11:36:10.587Z,50.20
2023-02-17T11:38:40.035Z,50.20
2023-02-17T11:41:07.798Z,50.20
2023-02-17T11:43:36.173Z,50.20
2023-02-17T11:46:22.288Z,50.20
2023-02-17T11:48:58.027Z,50.20
2023-02-17T11:51:36.649Z,50.30
2023-02-17T11:54:22.234Z,50.20
2023-02-17T11:57:15.114Z,50.20
2023-02-17T12:00:00.958Z,50.30
2023-02-17T12:02:54.852Z,50.30
2023-02-17T12:05:41.756Z,50.30
2023-02-17T12:08:42.382Z,50.30
2023-02-17T12:11:28.089Z,50.20
2023-02-17T12:14:34.330Z,50.30
2023-02-17T12:17:48.432Z,50.30
2023-02-17T12:20:39.510Z,50.30
2023-02-17T12:23:33.951Z,50.30
2023-02-17T12:26:31.998Z,50.30
2023-02-17T12:29:03.877Z,50.20
2023-02-17T12:32:01.463Z,50.30
2023-02-17T12:34:39.175Z,50.40
2023-02-17T12:37:07.599Z,50.30
2023-02-17T12:39:41.244Z,50.30
2023-02-17T12:42:11.949Z,50.30
2023-02-17T12:44:53.997Z,50.40
2023-02-17T12:47:34.047Z,50.30
2023-02-17T12:50:15.115Z,50.30
2023-02-17T12:52:46.370Z,50.30
2023-02-17T12:55:24.729Z,50.20
2023-02-17T12:58:03.780Z,50.30
2023-02-17T13:00:39.199Z,50.20
2023-02-17T13:03:07.703Z,50.20
2023-02-17T13:05:56.101Z,50.30
2023-02-17T13:08:38.885Z,50.20
2023-02-17T13:11:07.427Z,50.20
2023-02-17T13:13:35.506Z,50.10
2023-02-17T13:16:13.391Z,50.10
2023-02-17T13:18:51.446Z,50.20
2023-02-17T13:21:27.630Z,50.10
2023-02-17T13:24:12.716Z,50.10
2023-02-17T13:26:42.109Z,50.10
2023-02-17T13:29:31.848Z,50.10
2023-02-17T13:32:02.140Z,50.10
2023-02-17T13:34:44.715Z,50.10
2023-02-17T13:37:39.128Z,50.00
2023-02-17T13:40:18.074Z,50.00
2023-02-17T13:42:48.400Z,50.00
2023-02-17T13:45:21.980Z,50.00
2023-02-17T13:47:51.307Z,50.00
2023-02-17T13:50:37.342Z,50.00
2023-02-17T13:53:22.292Z,50.00
2023-02-17T13:55:49.267Z,50.00
2023-02-17T13:58:22.543Z,50.00
2023-02-17T14:00:49.313Z,50.00
2023-02-17T14:03:25.412Z,50.00
2023-02-17T14:05:58.100Z,50.00
2023-02-17T14:08:35.784Z,50.00
2023-02-17T14:11:06.964Z,50.00
2023-02-17T14:13:35.251Z,50.00
2023-02-17T14:16:02.186Z,50.00
2023-02-17T14:18:37.991Z,50.00
2023-02-17T14:21:23.031Z,50.00
2023-02-17T14:23:52.675Z,49.90
2023-02-17T14:26:49.015Z,50.00
2023-02-17T14:29:16.297Z,49.90
2023-02-17T14:31:53.547Z,49.90
2023-02-17T14:34:27.856Z,49.90
2023-02-17T14:36:55.113Z,49.90
2023-02-17T14:39:21.936Z,49.90
2023-02-17T14:41:48.703Z,49.80
2023-02-17T14:44:15.356Z,49.80
2023-02-17T14:46:42.135Z,49.80
2023-02-17T14:49:08.890Z,49.80
2023-02-17T14:51:37.801Z,49.80
2023-02-17T14:54:14.418Z,49.80
2023-02-17T14:56:51.696Z,49.80
2023-02-17T14:59:18.433Z,49.80
2023-02-17T15:01:45.142Z,49.80
2023-02-17T15:04:11.933Z,49.70
2023-02-17T15:06:41.769Z,49.80
2023-02-17T15:09:13.662Z,49.70
2023-02-17T15:11:42.454Z,49.80
2023-02-17T15:14:14.886Z,49.70
2023-02-17T15:16:41.777Z,49.70
2023-02-17T15:19:12.349Z,49.70
2023-02-17T15:21:44.232Z,49.70
2023-02-17T15:24:31.137Z,49.70
2023-02-17T15:26:58.587Z,49.70
2023-02-17T15:29:27.500Z,49.70
2023-02-17T15:31:56.167Z,49.80
2023-02-17T15:34:28.214Z,49.70
2023-02-17T15:36:54.938Z,49.70
2023-02-17T15:39:22.347Z,49.70
2023-02-17T15:41:50.432Z,49.70
2023-02-17T15:44:31.993Z,49.70
2023-02-17T15:46:58.783Z,49.70
2023-02-17T15:49:25.461Z,49.70
2023-02-17T15:51:52.259Z,49.70
2023-02-17T15:54:19.448Z,49.80
2023-02-17T15:56:52.226Z,50.00
2023-02-17T15:59:24.533Z,49.90
2023-02-17T16:01:51.608Z,50.00
2023-02-17T16:04:18.334Z,50.00
2023-02-17T16:06:45.261Z,50.10
2023-02-17T16:09:11.965Z,50.10
2023-02-17T16:11:48.474Z,50.00
2023-02-17T16:14:25.509Z,50.00
2023-02-17T16:16:52.629Z,50.00
2023-02-17T16:19:19.570Z,50.00
2023-02-17T16:21:46.275Z,50.00
2023-02-17T16:24:13.160Z,50.00
2023-02-17T16:26:40.562Z,50.00
2023-02-17T16:29:19.745Z,50.00
2023-02-17T16:31:47.104Z,50.00
2023-02-17T16:34:20.846Z,50.00
2023-02-17T16:36:49.294Z,50.00
2023-02-17T16:39:18.292Z,50.00
2023-02-17T16:41:45.069Z,50.10
2023-02-17T16:44:17.335Z,50.10
2023-02-17T16:46:53.370Z,50.10
2023-02-17T16:49:25.931Z,50.10
2023-02-17T16:51:52.874Z,50.20
2023-02-17T16:54:19.635Z,50.10
2023-02-17T16:56:51.519Z,50.20
2023-02-17T16:59:21.116Z,50.20
2023-02-17T17:01:48.610Z,50.20
2023-02-17T17:04:15.975Z,50.20
2023-02-17T17:06:45.816Z,50.10
2023-02-17T17:09:24.678Z,50.10
2023-02-17T17:11:51.333Z,50.10
2023-02-17T17:14:20.046Z,50.10
2023-02-17T17:17:00.769Z,50.10
2023-02-17T17:19:27.475Z,50.10
2023-02-17T17:21:54.199Z,50.10
2023-02-17T17:24:21.821Z,50.10
2023-02-17T17:26:51.161Z,50.10
2023-02-17T17:29:19.486Z,50.10
2023-02-17T17:31:46.873Z,50.10
2023-02-17T17:34:14.020Z,50.10
2023-02-17T17:36:43.864Z,50.10
2023-02-17T17:39:19.811Z,50.00
2023-02-17T17:41:47.172Z,50.10
2023-02-17T17:44:14.057Z,50.10
2023-02-17T17:46:41.466Z,50.10
2023-02-17T17:49:10.411Z,50.10
2023-02-17T17:51:38.642Z,50.10
2023-02-17T17:54:06.710Z,50.10
2023-02-17T17:56:36.420Z,50.10
2023-02-17T17:59:03.945Z,50.10
2023-02-17T18:01:31.059Z,50.10
2023-02-17T18:03:59.478Z,50.10
2023-02-17T18:06:31.395Z,50.00
2023-02-17T18:09:03.355Z,50.00
2023-02-17T18:11:30.962Z,50.00
2023-02-17T18:14:01.731Z,50.00
2023-02-17T18:16:29.770Z,50.00
2023-02-17T18:18:58.461Z,50.10
2023-02-17T18:21:25.422Z,50.00
2023-02-17T18:23:52.151Z,50.00
2023-02-17T18:26:19.291Z,50.00
2023-02-17T18:28:46.233Z,50.00
2023-02-17T18:31:15.645Z,50.00
2023-02-17T18:33:42.758Z,50.00
2023-02-17T18:36:11.903Z,49.90
2023-02-17T18:38:38.854Z,49.90
2023-02-17T18:41:05.823Z,49.90
2023-02-17T18:43:33.119Z,49.80
2023-02-17T18:46:00.050Z,49.90
2023-02-17T18:48:26.930Z,49.90
2023-02-17T18:50:54.500Z,49.90
2023-02-17T18:53:21.362Z,49.80
2023-02-17T18:55:48.142Z,49.80
2023-02-17T18:58:14.889Z,49.80
2023-02-17T19:00:41.591Z,49.80
2023-02-17T19:03:08.283Z,49.80
2023-02-17T19:05:35.166Z,49.80
2023-02-17T19:08:01.882Z,49.80
2023-02-17T19:10:28.577Z,49.80
2023-02-17T19:12:55.311Z,49.80
2023-02-17T19:15:22.175Z,49.80
2023-02-17T19:17:49.025Z,49.80
2023-02-17T19:20:17.125Z,49.80
2023-02-17T19:22:43.908Z,49.80
2023-02-17T19:25:10.727Z,49.70
2023-02-17T19:27:42.104Z,49.70
2023-02-17T19:30:11.199Z,49.70
2023-02-17T19:32:38.033Z,49.70
2023-02-17T19:35:05.199Z,49.70
2023-02-17T19:37:32.076Z,49.70
2023-02-17T19:39:58.821Z,49.70
2023-02-17T19:42:25.541Z,49.70
2023-02-17T19:44:52.266Z,49.70
2023-02-17T19:47:18.957Z,49.70
2023-02-17T19:49:45.646Z,49.70
2023-02-17T19:52:12.332Z,49.60
2023-02-17T19:54:39.034Z,49.60
2023-02-17T19:57:05.741Z,49.60
2023-02-17T19:59:33.636Z,49.60
2023-02-17T20:02:00.491Z,49.60
2023-02-17T20:04:27.310Z,49.60
2023-02-17T20:06:54.147Z,49.70
2023-02-17T20:09:22.420Z,49.60
2023-02-17T20:11:52.930Z,49.60
2023-02-17T20:14:20.712Z,49.60
2023-02-17T20:16:48.582Z,49.60
2023-02-17T20:19:15.716Z,49.60
2023-02-17T20:21:44.842Z,49.60
2023-02-17T20:24:14.971Z,49.60
2023-02-17T20:26:44.919Z,49.60
2023-02-17T20:29:12.612Z,49.60
2023-02-17T20:31:40.902Z,49.60
2023-02-17T20:34:17.673Z,49.60
2023-02-17T20:36:44.345Z,49.60
2023-02-17T20:39:11.126Z,49.60
2023-02-17T20:41:37.871Z,49.60
2023-02-17T20:44:05.073Z,49.60
2023-02-17T20:46:32.175Z,49.60
2023-02-17T20:48:58.957Z,49.50
2023-02-17T20:51:25.777Z,49.60
2023-02-17T20:53:52.525Z,49.60
2023-02-17T20:56:22.445Z,49.60
2023-02-17T20:58:49.708Z,49.60
2023-02-17T21:01:16.912Z,49.70
2023-02-17T21:03:43.650Z,49.70
2023-02-17T21:06:25.684Z,49.80
2023-02-17T21:08:57.812Z,49.80
2023-02-17T21:11:25.002Z,49.80
2023-02-17T21:13:52.361Z,49.90
2023-02-17T21:16:24.144Z,49.90
2023-02-17T21:18:51.670Z,50.00
2023-02-17T21:21:18.895Z,50.00
2023-02-17T21:23:45.863Z,50.00
2023-02-17T21:26:13.502Z,50.00
2023-02-17T21:28:40.559Z,50.00
2023-02-17T21:31:07.584Z,50.00
2023-02-17T21:33:35.493Z,50.00
2023-02-17T21:36:05.764Z,50.00
2023-02-17T21:38:32.510Z,50.00
2023-02-17T21:41:05.788Z,50.00
2023-02-17T21:43:51.309Z,50.00
2023-02-17T21:46:18.977Z,49.90
2023-02-17T21:48:45.722Z,50.00
2023-02-17T21:51:12.821Z,49.90
2023-02-17T21:53:39.961Z,49.90
2023-02-17T21:56:07.300Z,49.90
2023-02-17T21:58:34.683Z,49.90
2023-02-17T22:01:02.585Z,49.80
2023-02-17T22:03:29.394Z,49.90
2023-02-17T22:05:56.231Z,49.80
2023-02-17T22:08:23.869Z,49.80
2023-02-17T22:10:50.990Z,49.80
2023-02-17T22:13:17.741Z,49.80
2023-02-17T22:15:44.464Z,49.80
2023-02-17T22:18:11.213Z,49.80
2023-02-17T22:20:38.107Z,49.80
2023-02-17T22:23:04.819Z,49.80
2023-02-17T22:25:31.671Z,49.80
2023-02-17T22:27:58.406Z,49.80
2023-02-17T22:30:25.132Z,49.80
2023-02-17T22:32:51.845Z,49.80
2023-02-17T22:35:20.978Z,50.00
2023-02-17T22:37:47.724Z,50.00
2023-02-17T22:40:14.491Z,50.00
2023-02-17T22:42:41.214Z,50.00
2023-02-17T22:45:08.063Z,50.00
2023-02-17T22:47:34.771Z,50.00
2023-02-17T22:50:01.490Z,50.00
2023-02-17T22:52:28.178Z,50.00
2023-02-17T22:54:55.105Z,50.00
2023-02-17T22:57:21.751Z,50.00
2023-02-17T22:59:48.568Z,50.00
2023-02-17T23:02:15.238Z,50.00
2023-02-17T23:04:42.012Z,50.00
2023-02-17T23:07:11.373Z,50.00
2023-02-17T23:09:38.015Z,50.10
2023-02-17T23:12:04.881Z,50.10
2023-02-17T23:14:37.473Z,50.00
2023-02-17T23:17:12.413Z,50.10
2023-02-17T23:19:41.365Z,50.10
2023-02-17T23:22:11.285Z,50.00
2023-02-17T23:24:38.231Z,50.10
2023-02-17T23:27:05.245Z,50.00
2023-02-17T23:29:32.506Z,50.10
2023-02-17T23:31:59.850Z,50.20
2023-02-17T23:34:28.137Z,50.10
2023-02-17T23:36:55.088Z,50.10
2023-02-17T23:39:22.081Z,50.10
2023-02-17T23:41:48.918Z,50.00
2023-02-17T23:44:16.329Z,50.00
2023-02-17T23:46:44.912Z,50.00
2023-02-17T23:49:18.066Z,50.00
2023-02-17T23:51:46.785Z,50.00
2023-02-17T23:54:14.499Z,50.00
2023-02-17T23:56:41.492Z,50.00
2023-02-17T23:59:08.422Z,50.00
